createdAt,value
2022-10-23T00:00:15.810Z,0.00
2022-10-23T00:01:15.751Z,0.00
2022-10-23T00:02:15.754Z,0.00
2022-10-23T00:03:15.736Z,0.00
2022-10-23T00:04:15.760Z,0.00
2022-10-23T00:05:15.712Z,0.00
2022-10-23T00:06:15.683Z,0.00
2022-10-23T00:07:15.690Z,0.00
2022-10-23T00:08:15.675Z,0.00
2022-10-23T00:09:15.656Z,0.00
2022-10-23T00:10:15.660Z,0.00
2022-10-23T00:11:15.642Z,0.00
2022-10-23T00:12:15.637Z,0.00
2022-10-23T00:13:15.625Z,0.00
2022-10-23T00:14:15.617Z,0.00
2022-10-23T00:15:15.616Z,0.00
2022-10-23T00:16:15.588Z,0.00
2022-10-23T00:17:15.577Z,0.00
2022-10-23T00:18:15.565Z,0.00
2022-10-23T00:19:15.593Z,0.00
2022-10-23T00:20:15.574Z,0.00
2022-10-23T00:21:15.554Z,0.00
2022-10-23T00:22:15.522Z,0.00
2022-10-23T00:23:15.508Z,0.00
2022-10-23T00:24:15.520Z,0.00
2022-10-23T00:25:15.514Z,0.00
2022-10-23T00:26:15.488Z,0.00
2022-10-23T00:27:15.461Z,0.00
2022-10-23T00:28:15.457Z,0.00
2022-10-23T00:29:15.450Z,0.00
2022-10-23T00:30:15.475Z,0.00
2022-10-23T00:31:15.443Z,0.00
2022-10-23T00:32:15.420Z,0.00
2022-10-23T00:33:15.395Z,0.00
2022-10-23T00:34:15.394Z,0.00
2022-10-23T00:35:15.387Z,0.00
2022-10-23T00:36:15.378Z,0.00
2022-10-23T00:37:15.401Z,0.00
2022-10-23T00:38:15.349Z,0.00
2022-10-23T00:39:15.330Z,0.00
2022-10-23T00:40:15.346Z,0.00
2022-10-23T00:41:15.316Z,0.00
2022-10-23T00:42:15.331Z,0.00
2022-10-23T00:43:15.299Z,0.00
2022-10-23T00:44:15.291Z,0.00
2022-10-23T00:45:15.269Z,0.00
2022-10-23T00:46:15.275Z,0.00
2022-10-23T00:47:15.265Z,0.00
2022-10-23T00:48:16.486Z,0.00
2022-10-23T00:49:15.215Z,0.00
2022-10-23T00:50:15.242Z,0.00
2022-10-23T00:51:15.211Z,0.00
2022-10-23T00:52:15.224Z,0.00
2022-10-23T00:53:15.170Z,0.00
2022-10-23T00:54:30.680Z,0.00
2022-10-23T00:55:15.161Z,0.00
2022-10-23T00:56:15.155Z,0.00
2022-10-23T00:57:15.479Z,0.00
2022-10-23T00:58:15.129Z,0.00
2022-10-23T00:59:15.142Z,0.00
2022-10-23T01:00:15.127Z,0.00
2022-10-23T01:01:15.229Z,0.00
2022-10-23T01:02:15.213Z,0.00
2022-10-23T01:03:15.103Z,0.00
2022-10-23T01:04:15.070Z,0.00
2022-10-23T01:05:15.051Z,0.00
2022-10-23T01:06:15.050Z,0.00
2022-10-23T01:07:15.045Z,0.00
2022-10-23T01:08:15.041Z,0.00
2022-10-23T01:09:15.019Z,0.00
2022-10-23T01:10:15.006Z,0.00
2022-10-23T01:11:15.000Z,0.00
2022-10-23T01:12:14.990Z,0.00
2022-10-23T01:13:14.956Z,0.00
2022-10-23T01:14:14.980Z,0.00
2022-10-23T01:15:14.967Z,0.00
2022-10-23T01:16:14.937Z,0.00
2022-10-23T01:17:14.933Z,0.00
2022-10-23T01:18:14.915Z,0.00
2022-10-23T01:19:14.906Z,0.00
2022-10-23T01:20:14.925Z,0.00
2022-10-23T01:21:14.902Z,0.00
2022-10-23T01:22:14.964Z,0.00
2022-10-23T01:23:14.856Z,0.00
2022-10-23T01:24:14.916Z,0.00
2022-10-23T01:25:14.833Z,0.00
2022-10-23T01:26:14.828Z,0.00
2022-10-23T01:27:14.824Z,0.00
2022-10-23T01:28:14.861Z,0.00
2022-10-23T01:29:14.788Z,0.00
2022-10-23T01:30:14.794Z,0.00
2022-10-23T01:31:14.783Z,0.00
2022-10-23T01:32:14.804Z,0.00
2022-10-23T01:33:14.762Z,0.00
2022-10-23T01:34:14.741Z,0.00
2022-10-23T01:35:14.745Z,0.00
2022-10-23T01:36:14.816Z,0.00
2022-10-23T01:37:14.716Z,0.00
2022-10-23T01:38:14.705Z,0.00
2022-10-23T01:39:14.684Z,0.00
2022-10-23T01:40:14.685Z,0.00
2022-10-23T01:41:14.701Z,0.00
2022-10-23T01:42:14.655Z,0.00
2022-10-23T01:43:14.655Z,0.00
2022-10-23T01:44:14.651Z,0.00
2022-10-23T01:45:14.625Z,0.00
2022-10-23T01:46:14.651Z,0.00
2022-10-23T01:47:14.646Z,0.00
2022-10-23T01:48:14.616Z,0.00
2022-10-23T01:49:14.584Z,0.00
2022-10-23T01:50:14.565Z,0.00
2022-10-23T01:51:14.566Z,0.00
2022-10-23T01:52:14.576Z,0.00
2022-10-23T01:53:14.565Z,0.00
2022-10-23T01:54:14.552Z,0.00
2022-10-23T01:55:14.529Z,0.00
2022-10-23T01:56:14.541Z,0.00
2022-10-23T01:57:14.511Z,0.00
2022-10-23T01:58:14.496Z,0.00
2022-10-23T01:59:14.474Z,0.00
2022-10-23T02:00:14.470Z,0.00
2022-10-23T02:01:14.627Z,0.00
2022-10-23T02:02:14.488Z,0.00
2022-10-23T02:03:14.445Z,0.00
2022-10-23T02:04:14.452Z,0.00
2022-10-23T02:05:14.405Z,0.00
2022-10-23T02:06:14.393Z,0.00
2022-10-23T02:07:14.387Z,0.00
2022-10-23T02:08:14.424Z,0.00
2022-10-23T02:09:14.363Z,0.00
2022-10-23T02:10:14.373Z,0.00
2022-10-23T02:11:14.338Z,0.00
2022-10-23T02:12:14.361Z,0.00
2022-10-23T02:13:14.335Z,0.00
2022-10-23T02:14:14.319Z,0.00
2022-10-23T02:15:14.311Z,0.00
2022-10-23T02:16:14.298Z,0.00
2022-10-23T02:17:14.276Z,0.00
2022-10-23T02:18:14.287Z,0.00
2022-10-23T02:19:14.260Z,0.00
2022-10-23T02:20:14.260Z,0.00
2022-10-23T02:21:14.230Z,0.00
2022-10-23T02:22:14.227Z,0.00
2022-10-23T02:23:14.237Z,0.00
2022-10-23T02:24:14.214Z,0.00
2022-10-23T02:25:14.224Z,0.00
2022-10-23T02:26:14.187Z,0.00
2022-10-23T02:27:14.251Z,0.00
2022-10-23T02:28:14.196Z,0.00
2022-10-23T02:29:14.143Z,0.00
2022-10-23T02:30:14.149Z,0.00
2022-10-23T02:31:14.133Z,0.00
2022-10-23T02:32:14.123Z,0.00
2022-10-23T02:33:14.108Z,0.00
2022-10-23T02:34:14.111Z,0.00
2022-10-23T02:35:14.112Z,0.00
2022-10-23T02:36:14.088Z,0.00
2022-10-23T02:37:14.100Z,0.00
2022-10-23T02:38:14.082Z,0.00
2022-10-23T02:39:14.064Z,0.00
2022-10-23T02:40:14.072Z,0.00
2022-10-23T02:41:14.020Z,0.00
2022-10-23T02:42:14.963Z,0.00
2022-10-23T02:43:14.005Z,0.00
2022-10-23T02:44:14.049Z,0.00
2022-10-23T02:45:13.983Z,0.00
2022-10-23T02:46:13.974Z,0.00
2022-10-23T02:47:13.961Z,0.00
2022-10-23T02:48:13.976Z,0.00
2022-10-23T02:49:13.932Z,0.00
2022-10-23T02:50:13.980Z,0.00
2022-10-23T02:51:13.913Z,0.00
2022-10-23T02:52:14.029Z,0.00
2022-10-23T02:53:13.888Z,0.00
2022-10-23T02:54:13.892Z,0.00
2022-10-23T02:55:13.864Z,0.00
2022-10-23T02:56:13.865Z,0.00
2022-10-23T02:57:13.846Z,0.00
2022-10-23T02:58:13.852Z,0.00
2022-10-23T02:59:13.829Z,0.00
2022-10-23T03:00:13.833Z,0.00
2022-10-23T03:01:13.905Z,0.00
2022-10-23T03:02:13.887Z,0.00
2022-10-23T03:03:13.781Z,0.00
2022-10-23T03:04:13.780Z,0.00
2022-10-23T03:05:13.761Z,0.00
2022-10-23T03:06:13.797Z,0.00
2022-10-23T03:07:13.755Z,0.00
2022-10-23T03:08:14.489Z,0.00
2022-10-23T03:09:13.713Z,0.00
2022-10-23T03:10:13.734Z,0.00
2022-10-23T03:11:13.702Z,0.00
2022-10-23T03:12:13.712Z,0.00
2022-10-23T03:13:13.675Z,0.00
2022-10-23T03:14:13.677Z,0.00
2022-10-23T03:15:13.690Z,0.00
2022-10-23T03:16:13.681Z,0.00
2022-10-23T03:17:13.637Z,0.00
2022-10-23T03:18:13.661Z,0.00
2022-10-23T03:19:13.614Z,0.00
2022-10-23T03:20:13.614Z,0.00
2022-10-23T03:21:13.588Z,0.00
2022-10-23T03:22:13.602Z,0.00
2022-10-23T03:23:13.567Z,0.00
2022-10-23T03:24:13.584Z,0.00
2022-10-23T03:25:19.606Z,0.00
2022-10-23T03:26:13.570Z,0.00
2022-10-23T03:27:13.521Z,0.00
2022-10-23T03:28:13.527Z,0.00
2022-10-23T03:29:13.521Z,0.00
2022-10-23T03:30:13.500Z,0.00
2022-10-23T03:31:13.491Z,0.00
2022-10-23T03:32:13.476Z,0.00
2022-10-23T03:33:13.474Z,0.00
2022-10-23T03:34:13.506Z,0.00
2022-10-23T03:35:13.437Z,0.00
2022-10-23T03:36:13.442Z,0.00
2022-10-23T03:37:13.412Z,0.00
2022-10-23T03:38:13.413Z,0.00
2022-10-23T03:39:13.410Z,0.00
2022-10-23T03:40:13.389Z,0.00
2022-10-23T03:41:13.378Z,0.00
2022-10-23T03:42:13.375Z,0.00
2022-10-23T03:43:13.349Z,0.00
2022-10-23T03:44:13.371Z,0.00
2022-10-23T03:45:13.326Z,0.00
2022-10-23T03:46:13.363Z,0.00
2022-10-23T03:47:13.312Z,0.00
2022-10-23T03:48:13.350Z,0.00
2022-10-23T03:49:13.299Z,0.00
2022-10-23T03:50:13.320Z,0.00
2022-10-23T03:51:13.275Z,0.00
2022-10-23T03:52:13.384Z,0.00
2022-10-23T03:53:13.244Z,0.00
2022-10-23T03:54:13.312Z,0.00
2022-10-23T03:55:13.232Z,0.00
2022-10-23T03:56:13.250Z,0.00
2022-10-23T03:57:14.136Z,0.00
2022-10-23T03:58:13.207Z,0.00
2022-10-23T03:59:13.215Z,0.00
2022-10-23T04:00:13.998Z,0.00
2022-10-23T04:01:13.215Z,0.00
2022-10-23T04:02:13.269Z,0.00
2022-10-23T04:03:13.140Z,0.00
2022-10-23T04:04:13.123Z,0.00
2022-10-23T04:05:13.117Z,0.00
2022-10-23T04:06:13.122Z,0.00
2022-10-23T04:07:14.372Z,0.00
2022-10-23T04:08:16.396Z,0.00
2022-10-23T04:10:13.067Z,0.00
2022-10-23T04:11:13.044Z,0.00
2022-10-23T04:12:13.047Z,0.00
2022-10-23T04:13:13.029Z,0.00
2022-10-23T04:14:13.048Z,0.00
2022-10-23T04:15:13.013Z,0.00
2022-10-23T04:16:13.002Z,0.00
2022-10-23T04:17:13.019Z,0.00
2022-10-23T04:18:12.979Z,0.00
2022-10-23T04:19:12.977Z,0.00
2022-10-23T04:20:12.971Z,0.00
2022-10-23T04:21:12.942Z,0.00
2022-10-23T04:22:12.920Z,0.00
2022-10-23T04:23:12.965Z,0.00
2022-10-23T04:24:12.904Z,0.00
2022-10-23T04:25:12.917Z,0.00
2022-10-23T04:26:12.933Z,0.00
2022-10-23T04:27:12.882Z,0.00
2022-10-23T04:28:12.882Z,0.00
2022-10-23T04:29:12.857Z,0.00
2022-10-23T04:30:12.858Z,0.00
2022-10-23T04:31:12.846Z,0.00
2022-10-23T04:32:12.837Z,0.00
2022-10-23T04:33:12.819Z,0.00
2022-10-23T04:34:12.818Z,0.00
2022-10-23T04:35:12.837Z,0.00
2022-10-23T04:36:12.835Z,0.00
2022-10-23T04:37:12.770Z,0.00
2022-10-23T04:38:12.751Z,0.00
2022-10-23T04:39:12.758Z,0.00
2022-10-23T04:40:12.744Z,0.00
2022-10-23T04:41:12.756Z,0.00
2022-10-23T04:42:12.814Z,0.00
2022-10-23T04:43:12.738Z,0.00
2022-10-23T04:44:12.916Z,0.00
2022-10-23T04:45:12.686Z,0.00
2022-10-23T04:46:12.688Z,0.00
2022-10-23T04:47:12.671Z,0.00
2022-10-23T04:48:12.657Z,0.00
2022-10-23T04:49:12.699Z,0.00
2022-10-23T04:50:12.628Z,0.00
2022-10-23T04:51:12.618Z,0.00
2022-10-23T04:52:12.631Z,0.00
2022-10-23T04:53:12.601Z,0.00
2022-10-23T04:54:12.631Z,0.00
2022-10-23T04:55:12.591Z,0.00
2022-10-23T04:56:12.561Z,0.00
2022-10-23T04:57:12.824Z,0.00
2022-10-23T04:58:12.567Z,0.00
2022-10-23T04:59:12.549Z,0.00
2022-10-23T05:00:12.526Z,0.00
2022-10-23T05:01:12.644Z,0.00
2022-10-23T05:02:12.517Z,0.00
2022-10-23T05:03:12.503Z,0.00
2022-10-23T05:04:12.493Z,0.00
2022-10-23T05:05:12.471Z,0.00
2022-10-23T05:06:12.456Z,0.00
2022-10-23T05:07:12.561Z,0.00
2022-10-23T05:08:15.597Z,0.00
2022-10-23T05:09:12.434Z,0.00
2022-10-23T05:10:12.406Z,0.00
2022-10-23T05:11:12.413Z,0.00
2022-10-23T05:12:12.386Z,0.00
2022-10-23T05:13:12.404Z,0.00
2022-10-23T05:14:12.372Z,0.00
2022-10-23T05:15:12.405Z,0.00
2022-10-23T05:16:12.353Z,0.00
2022-10-23T05:17:12.406Z,0.00
2022-10-23T05:18:12.410Z,0.00
2022-10-23T05:19:12.328Z,0.00
2022-10-23T05:20:12.310Z,0.00
2022-10-23T05:21:12.301Z,0.00
2022-10-23T05:22:12.284Z,0.00
2022-10-23T05:23:12.321Z,0.00
2022-10-23T05:24:12.269Z,0.00
2022-10-23T05:25:12.260Z,0.00
2022-10-23T05:26:12.279Z,0.00
2022-10-23T05:27:12.275Z,0.00
2022-10-23T05:28:12.228Z,0.00
2022-10-23T05:29:12.223Z,0.00
2022-10-23T05:30:12.191Z,0.00
2022-10-23T05:31:12.197Z,0.00
2022-10-23T05:32:12.251Z,0.00
2022-10-23T05:33:12.172Z,0.00
2022-10-23T05:34:13.416Z,0.00
2022-10-23T05:35:12.162Z,0.00
2022-10-23T05:36:12.154Z,0.00
2022-10-23T05:37:12.132Z,0.00
2022-10-23T05:38:12.171Z,0.00
2022-10-23T05:39:12.137Z,0.00
2022-10-23T05:40:12.092Z,0.00
2022-10-23T05:41:12.089Z,0.00
2022-10-23T05:42:12.067Z,0.00
2022-10-23T05:43:12.131Z,0.00
2022-10-23T05:44:12.013Z,1.00
2022-10-23T05:45:12.011Z,1.00
2022-10-23T05:46:12.081Z,0.00
2022-10-23T05:47:12.094Z,0.00
2022-10-23T05:48:29.745Z,2.00
2022-10-23T05:49:11.990Z,1.00
2022-10-23T05:50:11.929Z,1.00
2022-10-23T05:51:11.940Z,2.00
2022-10-23T05:52:11.910Z,1.00
2022-10-23T05:53:11.918Z,1.00
2022-10-23T05:54:11.910Z,4.00
2022-10-23T05:55:11.894Z,7.00
2022-10-23T05:56:11.876Z,3.00
2022-10-23T05:57:11.903Z,4.00
2022-10-23T05:58:11.862Z,6.00
2022-10-23T05:59:11.837Z,5.00
2022-10-23T06:00:11.828Z,5.00
2022-10-23T06:01:11.926Z,7.00
2022-10-23T06:02:11.829Z,12.00
2022-10-23T06:03:11.809Z,16.00
2022-10-23T06:04:11.806Z,16.00
2022-10-23T06:05:11.787Z,16.00
2022-10-23T06:06:11.818Z,22.00
2022-10-23T06:07:11.746Z,29.00
2022-10-23T06:08:11.736Z,31.00
2022-10-23T06:09:11.773Z,33.00
2022-10-23T06:10:11.704Z,36.00
2022-10-23T06:11:11.716Z,39.00
2022-10-23T06:12:11.714Z,42.00
2022-10-23T06:13:11.852Z,45.00
2022-10-23T06:14:12.418Z,44.00
2022-10-23T06:15:11.674Z,48.00
2022-10-23T06:16:11.653Z,50.00
2022-10-23T06:17:11.646Z,54.00
2022-10-23T06:18:11.624Z,60.00
2022-10-23T06:19:11.628Z,70.00
2022-10-23T06:20:11.643Z,68.00
2022-10-23T06:21:11.624Z,71.00
2022-10-23T06:22:11.663Z,81.00
2022-10-23T06:23:11.602Z,85.00
2022-10-23T06:24:11.655Z,88.00
2022-10-23T06:25:11.579Z,103.00
2022-10-23T06:26:11.535Z,104.00
2022-10-23T06:27:11.548Z,111.00
2022-10-23T06:28:11.519Z,121.00
2022-10-23T06:29:11.531Z,125.00
2022-10-23T06:30:11.663Z,132.00
2022-10-23T06:31:12.712Z,138.00
2022-10-23T06:32:11.525Z,150.00
2022-10-23T06:33:11.478Z,157.00
2022-10-23T06:34:11.470Z,164.00
2022-10-23T06:35:11.444Z,170.00
2022-10-23T06:36:11.454Z,178.00
2022-10-23T06:37:11.428Z,182.00
2022-10-23T06:38:11.409Z,188.00
2022-10-23T06:39:11.418Z,196.00
2022-10-23T06:40:11.397Z,203.00
2022-10-23T06:41:11.454Z,208.00
2022-10-23T06:42:11.398Z,216.00
2022-10-23T06:43:11.360Z,222.00
2022-10-23T06:44:11.440Z,230.00
2022-10-23T06:45:11.340Z,232.00
2022-10-23T06:46:11.318Z,236.00
2022-10-23T06:47:11.341Z,243.00
2022-10-23T06:48:11.332Z,250.00
2022-10-23T06:49:11.327Z,256.00
2022-10-23T06:50:14.514Z,263.00
2022-10-23T06:51:11.308Z,268.00
2022-10-23T06:52:18.442Z,279.00
2022-10-23T06:53:11.257Z,293.00
2022-10-23T06:54:11.241Z,306.00
2022-10-23T06:55:11.250Z,313.00
2022-10-23T06:56:11.226Z,324.00
2022-10-23T06:57:11.221Z,333.00
2022-10-23T06:58:12.410Z,343.00
2022-10-23T06:59:11.230Z,351.00
2022-10-23T07:00:11.191Z,357.00
2022-10-23T07:01:11.293Z,368.00
2022-10-23T07:02:11.174Z,376.00
2022-10-23T07:03:11.165Z,387.00
2022-10-23T07:04:11.136Z,393.00
2022-10-23T07:05:13.599Z,405.00
2022-10-23T07:06:11.109Z,417.00
2022-10-23T07:07:11.111Z,435.00
2022-10-23T07:08:11.128Z,447.00
2022-10-23T07:09:11.144Z,462.00
2022-10-23T07:10:11.113Z,484.00
2022-10-23T07:11:11.067Z,511.00
2022-10-23T07:12:11.042Z,544.00
2022-10-23T07:13:11.040Z,576.00
2022-10-23T07:14:11.083Z,608.00
2022-10-23T07:15:11.022Z,633.00
2022-10-23T07:16:11.104Z,659.00
2022-10-23T07:17:10.995Z,676.00
2022-10-23T07:18:10.983Z,684.00
2022-10-23T07:19:11.020Z,693.00
2022-10-23T07:20:10.960Z,714.00
2022-10-23T07:21:10.960Z,720.00
2022-10-23T07:22:13.417Z,724.00
2022-10-23T07:23:10.938Z,735.00
2022-10-23T07:24:10.936Z,741.00
2022-10-23T07:25:10.944Z,756.00
2022-10-23T07:26:10.887Z,771.00
2022-10-23T07:27:10.901Z,792.00
2022-10-23T07:28:10.873Z,801.00
2022-10-23T07:29:10.884Z,815.00
2022-10-23T07:30:10.850Z,822.00
2022-10-23T07:31:10.860Z,832.00
2022-10-23T07:32:10.854Z,836.00
2022-10-23T07:33:10.837Z,845.00
2022-10-23T07:34:10.811Z,855.00
2022-10-23T07:35:10.946Z,877.00
2022-10-23T07:36:10.799Z,873.00
2022-10-23T07:37:10.785Z,871.00
2022-10-23T07:38:10.768Z,868.00
2022-10-23T07:39:10.766Z,858.00
2022-10-23T07:40:10.761Z,845.00
2022-10-23T07:41:12.276Z,828.00
2022-10-23T07:42:10.722Z,809.00
2022-10-23T07:43:10.783Z,782.00
2022-10-23T07:44:10.706Z,759.00
2022-10-23T07:45:10.702Z,748.00
2022-10-23T07:46:10.699Z,747.00
2022-10-23T07:47:10.723Z,747.00
2022-10-23T07:48:10.661Z,750.00
2022-10-23T07:49:10.667Z,756.00
2022-10-23T07:50:10.640Z,761.00
2022-10-23T07:51:10.809Z,763.00
2022-10-23T07:52:10.700Z,762.00
2022-10-23T07:53:10.608Z,765.00
2022-10-23T07:54:10.645Z,770.00
2022-10-23T07:55:10.603Z,783.00
2022-10-23T07:56:10.578Z,796.00
2022-10-23T07:57:10.575Z,816.00
2022-10-23T07:58:10.572Z,835.00
2022-10-23T07:59:10.560Z,852.00
2022-10-23T08:00:10.581Z,874.00
2022-10-23T08:01:10.574Z,903.00
2022-10-23T08:02:10.537Z,921.00
2022-10-23T08:03:10.525Z,953.00
2022-10-23T08:04:10.492Z,984.00
2022-10-23T08:05:10.510Z,1019.00
2022-10-23T08:06:10.521Z,1052.00
2022-10-23T08:07:10.474Z,1087.00
2022-10-23T08:08:10.473Z,1109.00
2022-10-23T08:09:10.459Z,1133.00
2022-10-23T08:10:10.418Z,1157.00
2022-10-23T08:11:10.436Z,1182.00
2022-10-23T08:12:10.429Z,1202.00
2022-10-23T08:13:10.421Z,1204.00
2022-10-23T08:14:10.412Z,1206.00
2022-10-23T08:15:10.390Z,1204.00
2022-10-23T08:16:10.362Z,1197.00
2022-10-23T08:17:10.388Z,1188.00
2022-10-23T08:18:10.356Z,1175.00
2022-10-23T08:19:10.337Z,1168.00
2022-10-23T08:20:10.316Z,1152.00
2022-10-23T08:21:10.316Z,1121.00
2022-10-23T08:22:10.291Z,1098.00
2022-10-23T08:23:10.290Z,1086.00
2022-10-23T08:24:10.296Z,1092.00
2022-10-23T08:25:10.300Z,1086.00
2022-10-23T08:26:10.256Z,1069.00
2022-10-23T08:27:10.271Z,1073.00
2022-10-23T08:28:10.266Z,1040.00
2022-10-23T08:29:10.236Z,1035.00
2022-10-23T08:30:10.209Z,1039.00
2022-10-23T08:31:10.234Z,1073.00
2022-10-23T08:32:10.191Z,1093.00
2022-10-23T08:33:10.181Z,1130.00
2022-10-23T08:34:10.192Z,1159.00
2022-10-23T08:35:10.167Z,1190.00
2022-10-23T08:36:10.187Z,1217.00
2022-10-23T08:37:10.139Z,1225.00
2022-10-23T08:38:10.138Z,1249.00
2022-10-23T08:39:10.104Z,1247.00
2022-10-23T08:40:10.126Z,1247.00
2022-10-23T08:41:10.084Z,1248.00
2022-10-23T08:43:10.070Z,1258.00
2022-10-23T08:44:10.072Z,1281.00
2022-10-23T08:45:10.087Z,1306.00
2022-10-23T08:46:10.062Z,1363.00
2022-10-23T08:47:10.041Z,1419.00
2022-10-23T08:48:10.017Z,1469.00
2022-10-23T08:49:10.001Z,1513.00
2022-10-23T08:50:10.009Z,1561.00
2022-10-23T08:51:09.998Z,1630.00
2022-10-23T08:52:13.176Z,1681.00
2022-10-23T08:53:09.956Z,1712.00
2022-10-23T08:54:09.971Z,1740.00
2022-10-23T08:55:09.930Z,1784.00
2022-10-23T08:56:09.962Z,1846.00
2022-10-23T08:57:09.929Z,1892.00
2022-10-23T08:58:09.969Z,1976.00
2022-10-23T08:59:09.931Z,2066.00
2022-10-23T09:00:09.904Z,2149.00
2022-10-23T09:01:10.299Z,2158.00
2022-10-23T09:02:10.158Z,2260.00
2022-10-23T09:03:10.047Z,2316.00
2022-10-23T09:04:10.050Z,2380.00
2022-10-23T09:05:09.825Z,2459.00
2022-10-23T09:06:09.965Z,2554.00
2022-10-23T09:08:10.569Z,2547.00
2022-10-23T09:09:09.890Z,2632.00
2022-10-23T09:10:09.838Z,2693.00
2022-10-23T09:11:09.762Z,2622.00
2022-10-23T09:12:09.809Z,2611.00
2022-10-23T09:13:09.737Z,2764.00
2022-10-23T09:14:09.736Z,2919.00
2022-10-23T09:15:09.933Z,2899.00
2022-10-23T09:16:09.712Z,2938.00
2022-10-23T09:17:09.759Z,2993.00
2022-10-23T09:18:10.170Z,3186.00
2022-10-23T09:19:12.057Z,2999.00
2022-10-23T09:20:09.925Z,3258.00
2022-10-23T09:21:10.478Z,3308.00
2022-10-23T09:22:09.654Z,3425.00
2022-10-23T09:23:09.638Z,3302.00
2022-10-23T09:24:09.654Z,3428.00
2022-10-23T09:25:09.620Z,3402.00
2022-10-23T09:26:09.659Z,3408.00
2022-10-23T09:27:09.660Z,3297.00
2022-10-23T09:28:09.632Z,3234.00
2022-10-23T09:29:09.622Z,3206.00
2022-10-23T09:30:09.637Z,3176.00
2022-10-23T09:31:09.587Z,3173.00
2022-10-23T09:32:09.556Z,3161.00
2022-10-23T09:33:09.568Z,3144.00
2022-10-23T09:34:11.727Z,3118.00
2022-10-23T09:35:09.546Z,3082.00
2022-10-23T09:36:09.513Z,2970.00
2022-10-23T09:37:10.062Z,2882.00
2022-10-23T09:38:09.478Z,2803.00
2022-10-23T09:39:09.525Z,2692.00
2022-10-23T09:40:09.472Z,2584.00
2022-10-23T09:41:09.450Z,2477.00
2022-10-23T09:42:09.444Z,2394.00
2022-10-23T09:43:09.425Z,2346.00
2022-10-23T09:44:09.488Z,2363.00
2022-10-23T09:45:09.406Z,2319.00
2022-10-23T09:46:09.401Z,2235.00
2022-10-23T09:47:10.068Z,2411.00
2022-10-23T09:48:09.406Z,2223.00
2022-10-23T09:49:09.380Z,2122.00
2022-10-23T09:50:09.368Z,2068.00
2022-10-23T09:51:09.591Z,2058.00
2022-10-23T09:52:09.738Z,1934.00
2022-10-23T09:53:09.326Z,1931.00
2022-10-23T09:54:09.331Z,1933.00
2022-10-23T09:55:11.068Z,1847.00
2022-10-23T09:56:09.311Z,1791.00
2022-10-23T09:57:09.291Z,1767.00
2022-10-23T09:58:09.270Z,1749.00
2022-10-23T09:59:09.258Z,1716.00
2022-10-23T10:00:09.248Z,1702.00
2022-10-23T10:01:10.108Z,1696.00
2022-10-23T10:02:09.405Z,1665.00
2022-10-23T10:03:09.199Z,1685.00
2022-10-23T10:04:09.240Z,1688.00
2022-10-23T10:05:09.189Z,1731.00
2022-10-23T10:06:09.283Z,1784.00
2022-10-23T10:07:09.691Z,1838.00
2022-10-23T10:08:09.153Z,1827.00
2022-10-23T10:09:09.144Z,1765.00
2022-10-23T10:10:10.236Z,1742.00
2022-10-23T10:11:09.131Z,1763.00
2022-10-23T10:12:09.249Z,1783.00
2022-10-23T10:13:11.938Z,1798.00
2022-10-23T10:14:09.181Z,1844.00
2022-10-23T10:15:09.076Z,1903.00
2022-10-23T10:16:09.067Z,1954.00
2022-10-23T10:17:09.085Z,1982.00
2022-10-23T10:18:09.193Z,1976.00
2022-10-23T10:19:09.135Z,1973.00
2022-10-23T10:20:09.056Z,1974.00
2022-10-23T10:21:09.240Z,1960.00
2022-10-23T10:22:09.217Z,1928.00
2022-10-23T10:23:09.009Z,1895.00
2022-10-23T10:24:09.036Z,1880.00
2022-10-23T10:25:08.985Z,1852.00
2022-10-23T10:26:08.974Z,1829.00
2022-10-23T10:27:08.941Z,1763.00
2022-10-23T10:28:08.970Z,1700.00
2022-10-23T10:29:08.933Z,1597.00
2022-10-23T10:30:08.966Z,1494.00
2022-10-23T10:31:08.909Z,1408.00
2022-10-23T10:32:08.897Z,1400.00
2022-10-23T10:33:08.886Z,1530.00
2022-10-23T10:34:08.969Z,1652.00
2022-10-23T10:35:09.170Z,1679.00
2022-10-23T10:36:09.002Z,1680.00
2022-10-23T10:37:08.913Z,1718.00
2022-10-23T10:38:08.904Z,1780.00
2022-10-23T10:39:09.382Z,1796.00
2022-10-23T10:40:08.880Z,1780.00
2022-10-23T10:41:09.049Z,1733.00
2022-10-23T10:42:08.925Z,1711.00
2022-10-23T10:43:08.821Z,1705.00
2022-10-23T10:44:08.835Z,1724.00
2022-10-23T10:45:08.752Z,1793.00
2022-10-23T10:46:08.963Z,1816.00
2022-10-23T10:47:08.728Z,1815.00
2022-10-23T10:48:08.730Z,1795.00
2022-10-23T10:49:11.457Z,1790.00
2022-10-23T10:50:08.845Z,1790.00
2022-10-23T10:51:08.694Z,1838.00
2022-10-23T10:52:08.693Z,1536.00
2022-10-23T10:53:08.671Z,1618.00
2022-10-23T10:54:08.722Z,1626.00
2022-10-23T10:55:08.640Z,1591.00
2022-10-23T10:57:08.846Z,1543.00
2022-10-23T10:58:08.638Z,1531.00
2022-10-23T10:59:08.753Z,1527.00
2022-10-23T11:00:08.672Z,1542.00
2022-10-23T11:01:08.691Z,1547.00
2022-10-23T11:02:08.705Z,1541.00
2022-10-23T11:03:08.590Z,1519.00
2022-10-23T11:04:08.571Z,1523.00
2022-10-23T11:05:08.595Z,1572.00
2022-10-23T11:06:08.551Z,1615.00
2022-10-23T11:07:08.525Z,1561.00
2022-10-23T11:08:08.543Z,1562.00
2022-10-23T11:09:19.829Z,1634.00
2022-10-23T11:10:08.499Z,1767.00
2022-10-23T11:11:08.477Z,1879.00
2022-10-23T11:12:08.471Z,2004.00
2022-10-23T11:13:08.449Z,1954.00
2022-10-23T11:14:08.450Z,1811.00
2022-10-23T11:15:10.132Z,1655.00
2022-10-23T11:16:08.502Z,1671.00
2022-10-23T11:17:08.418Z,1753.00
2022-10-23T11:18:08.415Z,1742.00
2022-10-23T11:19:11.464Z,1636.00
2022-10-23T11:20:08.403Z,1541.00
2022-10-23T11:21:08.410Z,1457.00
2022-10-23T11:22:08.365Z,1441.00
2022-10-23T11:23:08.343Z,1432.00
2022-10-23T11:24:11.344Z,1416.00
2022-10-23T11:25:08.360Z,1420.00
2022-10-23T11:26:08.331Z,1400.00
2022-10-23T11:27:08.290Z,1387.00
2022-10-23T11:28:10.552Z,1408.00
2022-10-23T11:29:08.286Z,1483.00
2022-10-23T11:30:08.550Z,1543.00
2022-10-23T11:31:11.948Z,1601.00
2022-10-23T11:32:08.245Z,1722.00
2022-10-23T11:33:08.329Z,1789.00
2022-10-23T11:34:08.298Z,1780.00
2022-10-23T11:35:08.229Z,1843.00
2022-10-23T11:36:08.302Z,1889.00
2022-10-23T11:37:08.408Z,1859.00
2022-10-23T11:38:08.257Z,1701.00
2022-10-23T11:39:08.202Z,1562.00
2022-10-23T11:40:08.160Z,1501.00
2022-10-23T11:41:08.151Z,1433.00
2022-10-23T11:42:08.170Z,1400.00
2022-10-23T11:43:08.120Z,1385.00
2022-10-23T11:44:08.122Z,1387.00
2022-10-23T11:45:09.612Z,1406.00
2022-10-23T11:46:08.121Z,1414.00
2022-10-23T11:47:08.090Z,1416.00
2022-10-23T11:48:08.075Z,1378.00
2022-10-23T11:49:08.111Z,1407.00
2022-10-23T11:50:08.074Z,1454.00
2022-10-23T11:51:08.230Z,1541.00
2022-10-23T11:52:08.060Z,1622.00
2022-10-23T11:53:16.361Z,1694.00
2022-10-23T11:54:08.109Z,1796.00
2022-10-23T11:55:08.089Z,1682.00
2022-10-23T11:56:07.997Z,1666.00
2022-10-23T11:57:10.312Z,1755.00
2022-10-23T11:58:09.571Z,1772.00
2022-10-23T11:59:07.959Z,1829.00
2022-10-23T12:00:07.967Z,1884.00
2022-10-23T12:01:07.972Z,1911.00
2022-10-23T12:02:07.972Z,1924.00
2022-10-23T12:03:07.938Z,1946.00
2022-10-23T12:04:07.916Z,1967.00
2022-10-23T12:05:08.606Z,1892.00
2022-10-23T12:06:07.887Z,1864.00
2022-10-23T12:07:07.873Z,1861.00
2022-10-23T12:08:07.883Z,1781.00
2022-10-23T12:09:07.848Z,1922.00
2022-10-23T12:10:07.868Z,2105.00
2022-10-23T12:11:07.815Z,2111.00
2022-10-23T12:12:07.823Z,2296.00
2022-10-23T12:13:07.817Z,2251.00
2022-10-23T12:14:07.889Z,2184.00
2022-10-23T12:15:07.791Z,2148.00
2022-10-23T12:16:07.799Z,2156.00
2022-10-23T12:17:07.825Z,2123.00
2022-10-23T12:18:07.808Z,2072.00
2022-10-23T12:19:07.722Z,1990.00
2022-10-23T12:20:07.735Z,1868.00
2022-10-23T12:21:07.781Z,1739.00
2022-10-23T12:22:07.717Z,1561.00
2022-10-23T12:23:07.694Z,1415.00
2022-10-23T12:24:07.717Z,1324.00
2022-10-23T12:25:07.753Z,1272.00
2022-10-23T12:26:07.667Z,1257.00
2022-10-23T12:27:07.646Z,1348.00
2022-10-23T12:28:07.664Z,1486.00
2022-10-23T12:29:07.655Z,1532.00
2022-10-23T12:30:07.626Z,1545.00
2022-10-23T12:31:07.605Z,1542.00
2022-10-23T12:32:07.643Z,1627.00
2022-10-23T12:33:08.696Z,1724.00
2022-10-23T12:34:07.627Z,1840.00
2022-10-23T12:35:07.594Z,1982.00
2022-10-23T12:36:07.630Z,2115.00
2022-10-23T12:37:07.578Z,2219.00
2022-10-23T12:38:07.534Z,2396.00
2022-10-23T12:39:07.554Z,2291.00
2022-10-23T12:40:07.520Z,2119.00
2022-10-23T12:41:09.564Z,1875.00
2022-10-23T12:42:07.503Z,1836.00
2022-10-23T12:43:07.470Z,1767.00
2022-10-23T12:44:07.491Z,1660.00
2022-10-23T12:45:07.480Z,1637.00
2022-10-23T12:46:07.457Z,1858.00
2022-10-23T12:47:07.433Z,2260.00